RYR6499 GMMX-LBSF
Flight info
| Callsign | RYR6499 |
|---|---|
| Flight time | N/A |
| Altitude | 37000 |
| Route | OBOGA UG850 FES G850 BOKPA UG850 ALM G850 BERUM N860 GONZA T100 SOTAX DCT INPEK DCT ODAKA DCT ELSAG M603 ALG L5 OST DCT MOPUV DCT EKMIL DCT ERPOG DCT KATTI DCT RILIM DCT INTIT DCT BUNEX DCT BAJUN DCT AZBUX L614 NISVA |
| Aircraft | B738/M-SDE2E3FGHIRWXY/LB1 |
Departure
| Time | 2026-04-30 22:23 |
|---|---|
| Airport | Marrakesh Menara Airport (GMMX) |
Arrival
| Time | N/A |
|---|---|
| Airport | Sofia Airport (LBSF) |
| Time | Latitude | Longitude | Altitude | Speed | Heading |
|---|---|---|---|---|---|
| 2026-04-30 22:08 | 31.60308 | -8.02546 | 1548 ft | 0 kts | 186° |
| 2026-04-30 22:15 | 31.60318 | -8.02545 | 1540 ft | 3 kts | 186° |
| 2026-04-30 22:15 | 31.60338 | -8.02542 | 1544 ft | 3 kts | 186° |
| 2026-04-30 22:15 | 31.60359 | -8.02539 | 1539 ft | 3 kts | 187° |
| 2026-04-30 22:16 | 31.60379 | -8.02537 | 1545 ft | 3 kts | 187° |
| 2026-04-30 22:16 | 31.60399 | -8.02534 | 1547 ft | 3 kts | 187° |
| 2026-04-30 22:17 | 31.60445 | -8.02527 | 1539 ft | 0 kts | 187° |
| 2026-04-30 22:19 | 31.60438 | -8.02533 | 1541 ft | 3 kts | 214° |
| 2026-04-30 22:19 | 31.60428 | -8.02577 | 1548 ft | 9 kts | 268° |
| 2026-04-30 22:19 | 31.60534 | -8.02637 | 1544 ft | 12 kts | 4° |
| 2026-04-30 22:20 | 31.60603 | -8.02689 | 1548 ft | 15 kts | 287° |
| 2026-04-30 22:20 | 31.60647 | -8.03129 | 1545 ft | 39 kts | 276° |
| 2026-04-30 22:20 | 31.60680 | -8.03490 | 1541 ft | 50 kts | 275° |
| 2026-04-30 22:21 | 31.60718 | -8.03927 | 1535 ft | 58 kts | 276° |
| 2026-04-30 22:21 | 31.60759 | -8.04408 | 1533 ft | 58 kts | 276° |
| 2026-04-30 22:21 | 31.60796 | -8.04847 | 1533 ft | 39 kts | 276° |
| 2026-04-30 22:21 | 31.60813 | -8.05051 | 1532 ft | 20 kts | 276° |
| 2026-04-30 22:22 | 31.60840 | -8.05196 | 1529 ft | 9 kts | 270° |
| 2026-04-30 22:22 | 31.60832 | -8.05209 | 1529 ft | 0 kts | 205° |
| 2026-04-30 22:22 | 31.60829 | -8.05207 | 1524 ft | 0 kts | 167° |
| 2026-04-30 22:22 | 31.60828 | -8.05198 | 1530 ft | 3 kts | 101° |
| 2026-04-30 22:23 | 31.60808 | -8.04981 | 1533 ft | 61 kts | 96° |
| 2026-04-30 22:23 | 31.60741 | -8.04206 | 1531 ft | 128 kts | 96° |
| 2026-04-30 22:23 | 31.60632 | -8.02952 | 1592 ft | 176 kts | 93° |
| 2026-04-30 22:23 | 31.60473 | -8.01515 | 2319 ft | 179 kts | 98° |
| 2026-04-30 22:24 | 31.60031 | -8.00139 | 3128 ft | 182 kts | 113° |
| 2026-04-30 22:24 | 31.59515 | -7.98798 | 3915 ft | 181 kts | 111° |
| 2026-04-30 22:24 | 31.59011 | -7.97415 | 4578 ft | 183 kts | 112° |
| 2026-04-30 22:24 | 31.58502 | -7.96009 | 5135 ft | 196 kts | 113° |
| 2026-04-30 22:25 | 31.57977 | -7.94434 | 5295 ft | 220 kts | 103° |
| 2026-04-30 22:25 | 31.57929 | -7.92569 | 5490 ft | 240 kts | 86° |
| 2026-04-30 22:25 | 31.58076 | -7.90529 | 5652 ft | 262 kts | 86° |
| 2026-04-30 22:25 | 31.58229 | -7.88346 | 6110 ft | 274 kts | 86° |
| 2026-04-30 22:26 | 31.59370 | -7.84158 | 7455 ft | 285 kts | 45° |
| 2026-04-30 22:26 | 31.60861 | -7.82534 | 8095 ft | 294 kts | 41° |
| 2026-04-30 22:26 | 31.62451 | -7.80885 | 8305 ft | 318 kts | 41° |
| 2026-04-30 22:27 | 31.64171 | -7.79106 | 8531 ft | 339 kts | 41° |
| 2026-04-30 22:27 | 31.65962 | -7.77238 | 9080 ft | 348 kts | 41° |
| 2026-04-30 22:27 | 31.69581 | -7.73411 | 10547 ft | 354 kts | 41° |
| 2026-04-30 22:28 | 31.73252 | -7.69479 | 11858 ft | 361 kts | 41° |
| 2026-04-30 22:28 | 31.75110 | -7.67480 | 12505 ft | 364 kts | 41° |
| 2026-04-30 22:29 | 31.80778 | -7.61358 | 14334 ft | 376 kts | 41° |
| 2026-04-30 22:29 | 31.82718 | -7.59260 | 14885 ft | 381 kts | 41° |
| 2026-04-30 22:30 | 31.90661 | -7.50650 | 17097 ft | 396 kts | 41° |
| 2026-04-30 22:31 | 31.96820 | -7.43960 | 18656 ft | 407 kts | 41° |
| 2026-04-30 22:32 | 32.03129 | -7.37093 | 20078 ft | 416 kts | 41° |
| 2026-04-30 22:32 | 32.07407 | -7.32429 | 21018 ft | 422 kts | 41° |
| 2026-04-30 22:33 | 32.13938 | -7.25297 | 22339 ft | 431 kts | 41° |
| 2026-04-30 22:33 | 32.18369 | -7.20450 | 23199 ft | 437 kts | 41° |
| 2026-04-30 22:34 | 32.25130 | -7.13041 | 24312 ft | 446 kts | 41° |
| 2026-04-30 22:35 | 32.29694 | -7.08030 | 25000 ft | 450 kts | 41° |
| 2026-04-30 22:36 | 32.38973 | -6.97822 | 26305 ft | 460 kts | 40° |
| 2026-04-30 22:36 | 32.41323 | -6.95232 | 26614 ft | 463 kts | 40° |
| 2026-04-30 22:37 | 32.48433 | -6.87383 | 27525 ft | 470 kts | 40° |
| 2026-04-30 22:37 | 32.50829 | -6.84735 | 27803 ft | 472 kts | 40° |
| 2026-04-30 22:37 | 32.55618 | -6.79434 | 28394 ft | 476 kts | 40° |
| 2026-04-30 22:38 | 32.60480 | -6.74043 | 28921 ft | 481 kts | 40° |
| 2026-04-30 22:38 | 32.65382 | -6.68601 | 29541 ft | 483 kts | 40° |
| 2026-04-30 22:39 | 32.67832 | -6.65876 | 29954 ft | 482 kts | 40° |
| 2026-04-30 22:39 | 32.75132 | -6.57746 | 31009 ft | 478 kts | 40° |
| 2026-04-30 22:40 | 32.82392 | -6.49643 | 31952 ft | 476 kts | 40° |
| 2026-04-30 22:41 | 32.89609 | -6.41570 | 32809 ft | 474 kts | 40° |
| 2026-04-30 22:41 | 32.94269 | -6.36027 | 33422 ft | 474 kts | 45° |
| 2026-04-30 22:42 | 33.02967 | -6.24231 | 34130 ft | 475 kts | 45° |
| 2026-04-30 22:43 | 33.07338 | -6.18328 | 34147 ft | 474 kts | 45° |
| 2026-04-30 22:44 | 33.16084 | -6.06567 | 34150 ft | 473 kts | 45° |
| 2026-04-30 22:45 | 33.29135 | -5.88940 | 34159 ft | 472 kts | 45° |
| 2026-04-30 22:47 | 33.42145 | -5.71226 | 34163 ft | 473 kts | 46° |
| 2026-04-30 22:48 | 33.50815 | -5.59346 | 34171 ft | 474 kts | 46° |
| 2026-04-30 22:49 | 33.63082 | -5.42474 | 34173 ft | 474 kts | 46° |
| 2026-04-30 22:51 | 33.76025 | -5.24584 | 34164 ft | 472 kts | 46° |
| 2026-04-30 22:52 | 33.82465 | -5.15650 | 34191 ft | 471 kts | 47° |
| 2026-04-30 22:53 | 33.90982 | -5.03799 | 34186 ft | 469 kts | 47° |
| 2026-04-30 22:53 | 33.95698 | -4.98466 | 34204 ft | 463 kts | 34° |
| 2026-04-30 22:53 | 33.98275 | -4.96143 | 34195 ft | 463 kts | 34° |
| 2026-04-30 22:55 | 34.11215 | -4.84524 | 34184 ft | 465 kts | 35° |
| 2026-04-30 22:56 | 34.21530 | -4.75065 | 34177 ft | 467 kts | 35° |
| 2026-04-30 22:57 | 34.34494 | -4.63142 | 34173 ft | 470 kts | 36° |
| 2026-04-30 22:58 | 34.44901 | -4.53508 | 34162 ft | 472 kts | 36° |
| 2026-04-30 22:59 | 34.60536 | -4.38888 | 34159 ft | 474 kts | 36° |